Hauptseite
METAR-TAF:

METAR-TAF

Flughäfen :

London City Airport

London, England

Breite: 51-30N, Länge: 000-03E, Höhe: 5 m

Beobachtung

Neuester Wetterbericht von vor 39 Minuten, um 12:50 UTC
Wind 6 kt aus Ost, variierte zwischen Nordost und Ost/Südost
Temperatur 23°C
Luftfeuchtigkeit 44%
Luftdruck 1035 hPa
Sichtweite 10 km oder mehr

METAR: EGLC 271250Z AUTO 09006KT 050V120 9999 NCD 23/10 Q1035

Zeit: 14:29 (13:29 UTC)

Prognose

Neuester Wetterbericht von vor 5 Stunden und 32 Minuten, um 07:57 UTC
Gültige Prognose vom 27 um 09 UTC bis 27 um 18 UTC
Wind 5 kt aus Ost
Sichtweite 10 km oder mehr
Leicht bewölkt in der Höhe von 4800 ft

TAF: EGLC 270757Z 2709/2718 09005KT 9999 FEW048

Wetterbeobachtungen und Prognosen von mehr als 4000 Flughäfen (METAR und TAF Bericht).

Die verfügbaren Stationen werden durch gelbe und rote Markierungen auf der Karte dargestellt.

Führen Sie die Maus auf sie, um den Namen der Station zu sehen.

Darauf klicken, um die Beobachtung von Wetterbeobachtungen und Prognosen zu sehen.

Um die Karte zu ändern : klicken Sie auf den grünen Tasten mit einem schwarzen Kreuz Zum Vergrößern, auf den grünen Button mit einem Gedankenstrich zu verkleinern, oder auf die grünen Pfeile für benachbarte Karten.


METAR-TAF: